sensor_id;sensor_type;location;lat;lon;timestamp;pressure;altitude;pressure_sealevel;temperature;humidity
26915;BME280;14480;52.608;13.416;2023-01-29T07:43:21;140281.66;;;-15.25;100.00
26915;BME280;14480;52.608;13.416;2023-01-29T07:48:25;140275.53;;;-15.27;100.00
26915;BME280;14480;52.608;13.416;2023-01-29T07:53:29;140274.25;;;-15.28;100.00
26915;BME280;14480;52.608;13.416;2023-01-29T07:58:35;140306.19;;;-15.15;100.00
26915;BME280;14480;52.608;13.416;2023-01-29T08:03:39;140319.66;;;-15.09;100.00
26915;BME280;14480;52.608;13.416;2023-01-29T08:08:42;140333.19;;;-15.04;100.00
26915;BME280;14480;52.608;13.416;2023-01-29T08:13:47;140319.66;;;-15.09;100.00
26915;BME280;14480;52.608;13.416;2023-01-29T08:18:51;140351.56;;;-14.96;100.00
26915;BME280;14480;52.608;13.416;2023-01-29T08:23:54;140360.19;;;-14.92;100.00
26915;BME280;14480;52.608;13.416;2023-01-29T08:28:59;140360.19;;;-14.92;100.00
26915;BME280;14480;52.608;13.416;2023-01-29T08:34:02;140376.13;;;-14.86;100.00
26915;BME280;14480;52.608;13.416;2023-01-29T08:39:06;140390.88;;;-14.80;100.00
26915;BME280;14480;52.608;13.416;2023-01-29T08:44:13;140385.91;;;-14.82;100.00
26915;BME280;14480;52.608;13.416;2023-01-29T08:49:19;140412.91;;;-14.70;100.00
26915;BME280;14480;52.608;13.416;2023-01-29T08:54:24;140444.88;;;-14.57;100.00
26915;BME280;14480;52.608;13.416;2023-01-29T08:59:29;140454.69;;;-14.53;100.00
26915;BME280;14480;52.608;13.416;2023-01-29T09:04:33;140477.97;;;-14.44;100.00
26915;BME280;14480;52.608;13.416;2023-01-29T09:09:37;140533.22;;;-14.21;100.00
26915;BME280;14480;52.608;13.416;2023-01-29T09:14:57;140559.03;;;-14.10;100.00
26915;BME280;14480;52.608;13.416;2023-01-29T09:20:03;140539.38;;;-14.18;100.00
26915;BME280;14480;52.608;13.416;2023-01-29T09:25:07;140541.81;;;-14.17;100.00
26915;BME280;14480;52.608;13.416;2023-01-29T09:30:15;140541.81;;;-14.17;100.00
26915;BME280;14480;52.608;13.416;2023-01-29T09:35:21;140556.56;;;-14.11;100.00
26915;BME280;14480;52.608;13.416;2023-01-29T09:40:26;140574.97;;;-14.03;100.00
26915;BME280;14480;52.608;13.416;2023-01-29T09:45:36;140589.72;;;-13.97;100.00
26915;BME280;14480;52.608;13.416;2023-01-29T09:50:42;140598.31;;;-13.94;100.00
26915;BME280;14480;52.608;13.416;2023-01-29T09:55:48;140604.44;;;-13.91;100.00
26915;BME280;14480;52.608;13.416;2023-01-29T10:00:56;140642.56;;;-13.75;100.00
26915;BME280;14480;52.608;13.416;2023-01-29T10:06:08;140670.81;;;-13.64;100.00
26915;BME280;14480;52.608;13.416;2023-01-29T10:11:20;140733.50;;;-13.38;100.00
26915;BME280;14480;52.608;13.416;2023-01-29T10:16:33;140791.22;;;-13.14;100.00
26915;BME280;14480;52.608;13.416;2023-01-29T10:21:51;140798.56;;;-13.11;100.00
26915;BME280;14480;52.608;13.416;2023-01-29T10:27:00;140846.53;;;-12.91;100.00
26915;BME280;14480;52.608;13.416;2023-01-29T10:32:07;140830.53;;;-12.98;100.00
26915;BME280;14480;52.608;13.416;2023-01-29T10:37:16;140898.22;;;-12.70;100.00
26915;BME280;14480;52.608;13.416;2023-01-29T10:42:23;140943.69;;;-12.51;100.00
26915;BME280;14480;52.608;13.416;2023-01-29T10:47:36;141019.97;;;-12.19;100.00
26915;BME280;14480;52.608;13.416;2023-01-29T10:52:50;141017.53;;;-12.20;100.00
26915;BME280;14480;52.608;13.416;2023-01-29T10:58:01;141114.78;;;-11.80;100.00
26915;BME280;14480;52.608;13.416;2023-01-29T11:03:17;141125.78;;;-11.75;100.00
26915;BME280;14480;52.608;13.416;2023-01-29T11:08:30;141127.03;;;-11.75;100.00
26915;BME280;14480;52.608;13.416;2023-01-29T11:13:37;141157.78;;;-11.62;100.00
26915;BME280;14480;52.608;13.416;2023-01-29T11:18:51;141188.56;;;-11.50;100.00
26915;BME280;14480;52.608;13.416;2023-01-29T11:24:05;141219.34;;;-11.37;100.00
26915;BME280;14480;52.608;13.416;2023-01-29T11:34:57;141264.94;;;-11.18;100.00
26915;BME280;14480;52.608;13.416;2023-01-29T11:40:01;141276.00;;;-11.13;100.00
26915;BME280;14480;52.608;13.416;2023-01-29T11:45:24;141210.75;;;-11.40;100.00
26915;BME280;14480;52.608;13.416;2023-01-29T11:50:30;141216.91;;;-11.38;100.00
26915;BME280;14480;52.608;13.416;2023-01-29T11:55:34;141256.31;;;-11.22;100.00
26915;BME280;14480;52.608;13.416;2023-01-29T12:00:51;141261.25;;;-11.20;100.00
26915;BME280;14480;52.608;13.416;2023-01-29T12:05:58;141292.03;;;-11.07;100.00
26915;BME280;14480;52.608;13.416;2023-01-29T12:11:07;141264.94;;;-11.18;100.00
26915;BME280;14480;52.608;13.416;2023-01-29T12:16:13;141226.78;;;-11.34;100.00
26915;BME280;14480;52.608;13.416;2023-01-29T12:21:21;141218.13;;;-11.37;100.00
26915;BME280;14480;52.608;13.416;2023-01-29T12:26:29;141186.13;;;-11.51;100.00
26915;BME280;14480;52.608;13.416;2023-01-29T12:31:35;141203.38;;;-11.43;100.00
26915;BME280;14480;52.608;13.416;2023-01-29T12:36:44;141191.03;;;-11.49;100.00
26915;BME280;14480;52.608;13.416;2023-01-29T12:41:55;141189.81;;;-11.49;100.00
26915;BME280;14480;52.608;13.416;2023-01-29T12:47:01;141194.72;;;-11.47;100.00
26915;BME280;14480;52.608;13.416;2023-01-29T12:52:11;141146.72;;;-11.67;100.00
26915;BME280;14480;52.608;13.416;2023-01-29T12:57:19;141123.34;;;-11.77;100.00
26915;BME280;14480;52.608;13.416;2023-01-29T13:02:29;141116.00;;;-11.80;100.00
26915;BME280;14480;52.608;13.416;2023-01-29T13:07:36;141134.41;;;-11.72;100.00
26915;BME280;14480;52.608;13.416;2023-01-29T13:12:46;141130.72;;;-11.73;100.00
26915;BME280;14480;52.608;13.416;2023-01-29T13:17:53;141079.06;;;-11.95;100.00
26915;BME280;14480;52.608;13.416;2023-01-29T13:23:05;141086.47;;;-11.92;100.00
26915;BME280;14480;52.608;13.416;2023-01-29T13:28:15;141047.06;;;-12.08;100.00
26915;BME280;14480;52.608;13.416;2023-01-29T13:33:21;141022.44;;;-12.18;100.00
26915;BME280;14480;52.608;13.416;2023-01-29T13:38:28;141038.47;;;-12.12;100.00
26915;BME280;14480;52.608;13.416;2023-01-29T13:43:34;141008.94;;;-12.24;100.00
26915;BME280;14480;52.608;13.416;2023-01-29T13:48:42;140984.31;;;-12.34;100.00
26915;BME280;14480;52.608;13.416;2023-01-29T13:53:53;140976.94;;;-12.37;100.00
26915;BME280;14480;52.608;13.416;2023-01-29T13:58:58;140979.41;;;-12.36;100.00
26915;BME280;14480;52.608;13.416;2023-01-29T14:04:03;140951.09;;;-12.48;100.00
26915;BME280;14480;52.608;13.416;2023-01-29T14:09:56;140944.91;;;-12.50;100.00
26915;BME280;14480;52.608;13.416;2023-01-29T14:15:00;140936.31;;;-12.54;100.00
26915;BME280;14480;52.608;13.416;2023-01-29T14:20:16;140952.34;;;-12.47;100.00
26915;BME280;14480;52.608;13.416;2023-01-29T14:25:28;140920.34;;;-12.60;100.00
26915;BME280;14480;52.608;13.416;2023-01-29T14:30:33;140922.81;;;-12.59;100.00
26915;BME280;14480;52.608;13.416;2023-01-29T14:35:37;140894.53;;;-12.71;100.00
26915;BME280;14480;52.608;13.416;2023-01-29T14:40:43;140885.88;;;-12.75;100.00
26915;BME280;14480;52.608;13.416;2023-01-29T14:45:48;140857.59;;;-12.86;100.00
26915;BME280;14480;52.608;13.416;2023-01-29T14:51:04;140845.31;;;-12.91;100.00
26915;BME280;14480;52.608;13.416;2023-01-29T14:56:14;140808.44;;;-13.07;100.00
26915;BME280;14480;52.608;13.416;2023-01-29T15:01:24;140780.22;;;-13.18;100.00
26915;BME280;14480;52.608;13.416;2023-01-29T15:06:30;140777.75;;;-13.19;100.00
26915;BME280;14480;52.608;13.416;2023-01-29T15:17:45;140702.78;;;-13.50;100.00
26915;BME280;14480;52.608;13.416;2023-01-29T15:22:53;140658.50;;;-13.69;100.00
26915;BME280;14480;52.608;13.416;2023-01-29T15:28:19;140695.41;;;-13.53;100.00
26915;BME280;14480;52.608;13.416;2023-01-29T15:33:25;140689.22;;;-13.56;100.00
26915;BME280;14480;52.608;13.416;2023-01-29T15:38:29;140691.69;;;-13.55;100.00
26915;BME280;14480;52.608;13.416;2023-01-29T16:13:53;140592.19;;;-13.96;100.00
26915;BME280;14480;52.608;13.416;2023-01-29T16:19:00;140604.44;;;-13.91;100.00
26915;BME280;14480;52.608;13.416;2023-01-29T16:24:05;140600.78;;;-13.93;100.00
26915;BME280;14480;52.608;13.416;2023-01-29T16:29:15;140610.63;;;-13.89;100.00
26915;BME280;14480;52.608;13.416;2023-01-29T16:34:22;140592.19;;;-13.96;100.00
26915;BME280;14480;52.608;13.416;2023-01-29T16:39:27;140597.09;;;-13.94;100.00
26915;BME280;14480;52.608;13.416;2023-01-29T16:50:20;140597.09;;;-13.94;100.00
26915;BME280;14480;52.608;13.416;2023-01-29T16:55:31;140638.88;;;-13.77;100.00
26915;BME280;14480;52.608;13.416;2023-01-29T17:00:39;140632.72;;;-13.79;100.00
26915;BME280;14480;52.608;13.416;2023-01-29T17:05:48;140636.38;;;-13.78;100.00
26915;BME280;14480;52.608;13.416;2023-01-29T17:10:53;140611.84;;;-13.88;100.00
26915;BME280;14480;52.608;13.416;2023-01-29T17:16:14;140614.31;;;-13.87;100.00
26915;BME280;14480;52.608;13.416;2023-01-29T17:21:24;140641.34;;;-13.76;100.00
26915;BME280;14480;52.608;13.416;2023-01-29T17:26:27;140597.09;;;-13.94;100.00
26915;BME280;14480;52.608;13.416;2023-01-29T17:31:32;140615.53;;;-13.87;100.00
26915;BME280;14480;52.608;13.416;2023-01-29T17:36:38;140652.38;;;-13.71;100.00
26915;BME280;14480;52.608;13.416;2023-01-29T17:41:43;140663.41;;;-13.67;100.00
26915;BME280;14480;52.608;13.416;2023-01-29T17:46:48;140670.81;;;-13.64;100.00
26915;BME280;14480;52.608;13.416;2023-01-29T17:51:55;140732.25;;;-13.38;100.00
26915;BME280;14480;52.608;13.416;2023-01-29T17:57:00;140748.22;;;-13.32;100.00
26915;BME280;14480;52.608;13.416;2023-01-29T18:02:07;140796.13;;;-13.12;100.00
26915;BME280;14480;52.608;13.416;2023-01-29T18:07:32;141116.00;;;-11.80;100.00
26915;BME280;14480;52.608;13.416;2023-01-29T18:12:36;141353.63;;;-10.81;100.00
26915;BME280;14480;52.608;13.416;2023-01-29T18:17:39;141256.31;;;-11.22;100.00
26915;BME280;14480;52.608;13.416;2023-01-29T18:22:51;140999.06;;;-12.28;100.00
26915;BME280;14480;52.608;13.416;2023-01-29T18:27:58;140871.16;;;-12.81;100.00
26915;BME280;14480;52.608;13.416;2023-01-29T18:33:02;140776.50;;;-13.20;100.00
26915;BME280;14480;52.608;13.416;2023-01-29T18:38:07;140733.50;;;-13.38;100.00
26915;BME280;14480;52.608;13.416;2023-01-29T18:43:12;140701.53;;;-13.51;100.00
26915;BME280;14480;52.608;13.416;2023-01-29T18:48:15;140688.00;;;-13.57;100.00
26915;BME280;14480;52.608;13.416;2023-01-29T18:53:21;140672.06;;;-13.63;100.00
26915;BME280;14480;52.608;13.416;2023-01-29T18:58:24;140648.69;;;-13.73;100.00
26915;BME280;14480;52.608;13.416;2023-01-29T19:03:37;140653.59;;;-13.71;100.00
26915;BME280;14480;52.608;13.416;2023-01-29T19:08:43;140643.78;;;-13.75;100.00
26915;BME280;14480;52.608;13.416;2023-01-29T19:13:46;140631.47;;;-13.80;100.00
26915;BME280;14480;52.608;13.416;2023-01-29T19:18:51;140615.53;;;-13.87;100.00
26915;BME280;14480;52.608;13.416;2023-01-29T19:24:01;140588.50;;;-13.98;100.00
26915;BME280;14480;52.608;13.416;2023-01-29T19:29:07;140539.38;;;-14.18;100.00
26915;BME280;14480;52.608;13.416;2023-01-29T19:34:11;140546.72;;;-14.15;100.00
26915;BME280;14480;52.608;13.416;2023-01-29T19:39:20;140524.59;;;-14.24;100.00
26915;BME280;14480;52.608;13.416;2023-01-29T19:44:24;140535.69;;;-14.20;100.00
26915;BME280;14480;52.608;13.416;2023-01-29T19:49:28;140540.59;;;-14.18;100.00
26915;BME280;14480;52.608;13.416;2023-01-29T19:54:33;140567.63;;;-14.06;100.00
26915;BME280;14480;52.608;13.416;2023-01-29T19:59:37;140555.34;;;-14.11;100.00
26915;BME280;14480;52.608;13.416;2023-01-29T20:04:40;140536.91;;;-14.19;100.00
26915;BME280;14480;52.608;13.416;2023-01-29T20:09:47;140525.84;;;-14.24;100.00
26915;BME280;14480;52.608;13.416;2023-01-29T20:14:56;140513.56;;;-14.29;100.00
26915;BME280;14480;52.608;13.416;2023-01-29T20:19:59;140541.81;;;-14.17;100.00
26915;BME280;14480;52.608;13.416;2023-01-29T20:25:05;140525.84;;;-14.24;100.00
26915;BME280;14480;52.608;13.416;2023-01-29T20:30:10;140519.69;;;-14.26;100.00
26915;BME280;14480;52.608;13.416;2023-01-29T20:35:14;140540.59;;;-14.18;100.00
26915;BME280;14480;52.608;13.416;2023-01-29T20:40:19;140518.47;;;-14.27;100.00
26915;BME280;14480;52.608;13.416;2023-01-29T20:45:23;140529.56;;;-14.22;100.00
26915;BME280;14480;52.608;13.416;2023-01-29T20:50:27;140512.34;;;-14.29;100.00
26915;BME280;14480;52.608;13.416;2023-01-29T20:55:32;140536.91;;;-14.19;100.00
26915;BME280;14480;52.608;13.416;2023-01-29T21:00:36;140523.38;;;-14.25;100.00
26915;BME280;14480;52.608;13.416;2023-01-29T21:05:40;140508.66;;;-14.31;100.00
26915;BME280;14480;52.608;13.416;2023-01-29T21:10:46;140529.56;;;-14.22;100.00
26915;BME280;14480;52.608;13.416;2023-01-29T21:15:50;140544.28;;;-14.16;100.00
26915;BME280;14480;52.608;13.416;2023-01-29T21:20:55;140518.47;;;-14.27;100.00
26915;BME280;14480;52.608;13.416;2023-01-29T21:26:01;140518.47;;;-14.27;100.00
26915;BME280;14480;52.608;13.416;2023-01-29T21:31:06;140547.94;;;-14.15;100.00
26915;BME280;14480;52.608;13.416;2023-01-29T21:36:13;140545.50;;;-14.16;100.00
26915;BME280;14480;52.608;13.416;2023-01-29T21:41:18;140543.03;;;-14.17;100.00
26915;BME280;14480;52.608;13.416;2023-01-29T21:46:44;140543.03;;;-14.17;100.00
26915;BME280;14480;52.608;13.416;2023-01-29T21:51:48;140583.59;;;-14.00;100.00
26915;BME280;14480;52.608;13.416;2023-01-29T21:56:53;140578.66;;;-14.02;100.00
26915;BME280;14480;52.608;13.416;2023-01-29T22:01:57;140559.03;;;-14.10;100.00
26915;BME280;14480;52.608;13.416;2023-01-29T22:07:00;140567.63;;;-14.06;100.00
26915;BME280;14480;52.608;13.416;2023-01-29T22:12:06;140594.63;;;-13.95;100.00
26915;BME280;14480;52.608;13.416;2023-01-29T22:17:10;140597.09;;;-13.94;100.00
26915;BME280;14480;52.608;13.416;2023-01-29T22:22:13;140582.38;;;-14.00;100.00
26915;BME280;14480;52.608;13.416;2023-01-29T22:27:19;140635.16;;;-13.78;100.00
26915;BME280;14480;52.608;13.416;2023-01-29T22:32:23;140546.72;;;-14.15;100.00
26915;BME280;14480;52.608;13.416;2023-01-29T22:37:26;140586.06;;;-13.99;100.00
26915;BME280;14480;52.608;13.416;2023-01-29T22:42:32;140308.63;;;-15.14;100.00
